createdAt,value
2022-08-07T00:02:39.871Z,70.20
2022-08-07T00:04:58.403Z,70.20
2022-08-07T00:07:27.425Z,70.10
2022-08-07T00:10:19.296Z,70.10
2022-08-07T00:12:43.626Z,70.00
2022-08-07T00:15:25.849Z,70.00
2022-08-07T00:18:05.665Z,70.00
2022-08-07T00:20:34.420Z,70.10
2022-08-07T00:23:02.492Z,70.10
2022-08-07T00:25:37.487Z,70.00
2022-08-07T00:28:08.586Z,70.10
2022-08-07T00:30:37.430Z,70.00
2022-08-07T00:33:04.098Z,70.00
2022-08-07T00:35:35.270Z,70.10
2022-08-07T00:38:04.112Z,70.20
2022-08-07T00:40:39.737Z,70.40
2022-08-07T00:43:09.974Z,70.60
2022-08-07T00:45:40.715Z,70.50
2022-08-07T00:48:10.818Z,70.50
2022-08-07T00:50:46.487Z,70.50
2022-08-07T00:53:19.489Z,70.50
2022-08-07T00:56:02.600Z,70.50
2022-08-07T00:58:31.542Z,70.60
2022-08-07T01:00:58.865Z,70.60
2022-08-07T01:03:56.283Z,70.60
2022-08-07T01:06:12.888Z,70.60
2022-08-07T01:08:51.256Z,70.50
2022-08-07T01:12:10.212Z,70.60
2022-08-07T01:14:07.470Z,70.50
2022-08-07T01:16:36.722Z,70.60
2022-08-07T01:19:04.794Z,70.50
2022-08-07T01:21:46.121Z,70.60
2022-08-07T01:24:14.055Z,70.60
2022-08-07T01:26:47.829Z,70.40
2022-08-07T01:29:18.294Z,70.50
2022-08-07T01:31:46.170Z,70.40
2022-08-07T01:34:15.674Z,70.40
2022-08-07T01:36:44.054Z,70.60
2022-08-07T01:39:11.411Z,70.50
2022-08-07T01:41:40.735Z,70.60
2022-08-07T01:44:21.914Z,70.60
2022-08-07T01:46:50.207Z,70.60
2022-08-07T01:49:16.948Z,70.60
2022-08-07T01:52:03.435Z,70.70
2022-08-07T01:54:37.258Z,70.70
2022-08-07T01:57:24.310Z,70.70
2022-08-07T01:59:57.184Z,70.70
2022-08-07T02:03:12.015Z,70.70
2022-08-07T02:05:43.402Z,70.70
2022-08-07T02:08:06.422Z,70.70
2022-08-07T02:10:36.206Z,70.70
2022-08-07T02:13:09.287Z,70.70
2022-08-07T02:15:36.966Z,70.70
2022-08-07T02:18:04.390Z,70.70
2022-08-07T02:20:33.447Z,70.70
2022-08-07T02:23:02.986Z,70.60
2022-08-07T02:26:10.305Z,70.40
2022-08-07T02:28:24.379Z,70.40
2022-08-07T02:30:52.859Z,70.40
2022-08-07T02:33:19.953Z,70.40
2022-08-07T02:36:26.929Z,70.30
2022-08-07T02:38:36.928Z,70.20
2022-08-07T02:41:04.508Z,70.10
2022-08-07T02:43:33.140Z,70.10
2022-08-07T02:46:02.358Z,70.10
2022-08-07T02:48:30.017Z,70.10
2022-08-07T02:50:59.450Z,69.90
2022-08-07T02:53:28.627Z,69.90
2022-08-07T02:56:03.412Z,69.80
2022-08-07T02:58:33.812Z,69.80
2022-08-07T03:01:01.985Z,69.70
2022-08-07T03:03:49.523Z,69.70
2022-08-07T03:06:25.553Z,69.60
2022-08-07T03:08:58.960Z,69.70
2022-08-07T03:11:28.134Z,69.60
2022-08-07T03:13:57.540Z,69.40
2022-08-07T03:16:28.784Z,69.40
2022-08-07T03:18:58.163Z,69.40
2022-08-07T03:21:25.317Z,69.30
2022-08-07T03:24:19.788Z,69.30
2022-08-07T03:26:50.965Z,69.30
2022-08-07T03:29:22.071Z,69.10
2022-08-07T03:31:49.950Z,69.40
2022-08-07T03:34:22.331Z,69.40
2022-08-07T03:36:51.229Z,69.10
2022-08-07T03:39:59.144Z,69.20
2022-08-07T03:42:06.435Z,69.20
2022-08-07T03:44:34.744Z,69.00
2022-08-07T03:47:10.937Z,69.00
2022-08-07T03:49:41.531Z,69.00
2022-08-07T03:52:22.898Z,69.00
2022-08-07T03:54:54.638Z,69.40
2022-08-07T03:58:32.637Z,69.20
2022-08-07T04:00:10.501Z,69.40
2022-08-07T04:02:41.206Z,69.40
2022-08-07T04:05:08.673Z,69.40
2022-08-07T04:07:45.306Z,69.40
2022-08-07T04:10:15.713Z,69.40
2022-08-07T04:12:46.027Z,69.50
2022-08-07T04:15:15.046Z,69.50
2022-08-07T04:18:57.369Z,69.50
2022-08-07T04:20:29.412Z,69.60
2022-08-07T04:23:01.649Z,69.60
2022-08-07T04:25:29.594Z,69.60
2022-08-07T04:28:00.739Z,69.60
2022-08-07T04:30:44.025Z,69.60
2022-08-07T04:33:17.819Z,69.60
2022-08-07T04:35:50.950Z,69.70
2022-08-07T04:38:18.739Z,69.60
2022-08-07T04:40:51.976Z,69.70
2022-08-07T04:44:09.609Z,69.70
2022-08-07T04:46:29.325Z,69.70
2022-08-07T04:49:18.027Z,69.70
2022-08-07T04:51:56.803Z,69.70
2022-08-07T04:54:32.599Z,69.70
2022-08-07T04:58:13.924Z,69.70
2022-08-07T05:00:11.763Z,69.70
2022-08-07T05:03:02.110Z,69.70
2022-08-07T05:05:52.711Z,69.70
2022-08-07T05:08:45.767Z,69.70
2022-08-07T05:11:19.737Z,69.80
2022-08-07T05:14:55.369Z,69.80
2022-08-07T05:16:47.507Z,69.80
2022-08-07T05:19:25.675Z,69.80
2022-08-07T05:22:01.851Z,69.80
2022-08-07T05:24:40.368Z,69.90
2022-08-07T05:27:14.461Z,69.80
2022-08-07T05:29:56.648Z,69.80
2022-08-07T05:32:26.118Z,69.80
2022-08-07T05:34:53.466Z,69.80
2022-08-07T05:37:25.403Z,69.60
2022-08-07T05:40:06.462Z,69.60
2022-08-07T05:42:39.446Z,69.40
2022-08-07T05:45:14.436Z,69.50
2022-08-07T05:48:01.167Z,69.40
2022-08-07T05:50:30.875Z,69.20
2022-08-07T05:52:58.191Z,69.20
2022-08-07T05:55:25.487Z,69.10
2022-08-07T05:58:12.646Z,69.20
2022-08-07T06:00:40.966Z,69.10
2022-08-07T06:03:14.163Z,69.00
2022-08-07T06:05:42.094Z,69.10
2022-08-07T06:08:30.199Z,69.00
2022-08-07T06:10:57.743Z,69.20
2022-08-07T06:14:10.483Z,69.30
2022-08-07T06:16:13.518Z,69.30
2022-08-07T06:18:40.330Z,69.40
2022-08-07T06:22:16.401Z,69.50
2022-08-07T06:24:38.780Z,69.30
2022-08-07T06:26:45.057Z,69.40
2022-08-07T06:29:13.956Z,69.40
2022-08-07T06:31:50.021Z,70.30
2022-08-07T06:34:20.586Z,69.40
2022-08-07T06:36:48.254Z,69.30
2022-08-07T06:40:16.631Z,69.20
2022-08-07T06:42:10.518Z,69.10
2022-08-07T06:44:39.601Z,69.10
2022-08-07T06:47:11.970Z,69.60
2022-08-07T06:49:51.625Z,69.40
2022-08-07T06:52:31.683Z,69.80
2022-08-07T06:55:32.758Z,69.70
2022-08-07T06:57:56.319Z,69.60
2022-08-07T07:00:25.049Z,69.50
2022-08-07T07:02:58.289Z,69.30
2022-08-07T07:06:03.226Z,69.20
2022-08-07T07:08:18.207Z,69.20
2022-08-07T07:10:47.283Z,69.30
2022-08-07T07:13:56.434Z,69.20
2022-08-07T07:16:18.088Z,69.20
2022-08-07T07:18:50.144Z,68.90
2022-08-07T07:21:27.360Z,68.50
2022-08-07T07:24:12.498Z,68.50
2022-08-07T07:26:40.955Z,68.40
2022-08-07T07:29:38.693Z,68.60
2022-08-07T07:32:09.417Z,68.70
2022-08-07T07:34:39.615Z,68.50
2022-08-07T07:37:21.739Z,68.50
2022-08-07T07:39:56.082Z,68.80
2022-08-07T07:42:32.393Z,68.00
2022-08-07T07:45:04.294Z,68.50
2022-08-07T07:47:52.052Z,68.40
2022-08-07T07:50:34.145Z,67.90
2022-08-07T07:53:20.378Z,67.00
2022-08-07T07:56:00.423Z,66.70
2022-08-07T07:58:40.323Z,66.80
2022-08-07T08:02:01.849Z,66.80
2022-08-07T08:04:06.518Z,67.20
2022-08-07T08:06:39.609Z,67.90
2022-08-07T08:09:08.125Z,67.60
2022-08-07T08:11:47.277Z,67.10
2022-08-07T08:14:26.247Z,65.60
2022-08-07T08:16:54.323Z,66.10
2022-08-07T08:20:18.508Z,66.40
2022-08-07T08:22:33.011Z,66.50
2022-08-07T08:25:42.296Z,66.30
2022-08-07T08:28:09.512Z,66.30
2022-08-07T08:30:42.467Z,66.50
2022-08-07T08:33:16.205Z,69.00
2022-08-07T08:35:49.993Z,67.40
2022-08-07T08:38:20.535Z,67.00
2022-08-07T08:40:58.609Z,67.40
2022-08-07T08:43:42.875Z,68.20
2022-08-07T08:46:21.976Z,66.60
2022-08-07T08:48:55.635Z,66.50
2022-08-07T08:51:49.467Z,66.40
2022-08-07T08:54:17.206Z,65.80
2022-08-07T08:56:47.998Z,67.00
2022-08-07T08:59:16.547Z,66.50
2022-08-07T09:01:50.899Z,66.30
2022-08-07T09:04:35.081Z,66.30
2022-08-07T09:07:06.109Z,65.90
2022-08-07T09:09:43.641Z,66.80
2022-08-07T09:12:30.912Z,66.40
2022-08-07T09:16:25.604Z,66.20
2022-08-07T09:17:59.263Z,66.70
2022-08-07T09:20:37.179Z,67.40
2022-08-07T09:24:33.017Z,67.70
2022-08-07T09:26:09.548Z,67.90
2022-08-07T09:30:00.816Z,67.90
2022-08-07T09:31:38.438Z,68.50
2022-08-07T09:34:11.965Z,68.40
2022-08-07T09:36:54.066Z,68.30
2022-08-07T09:39:54.355Z,68.70
2022-08-07T09:42:34.047Z,68.00
2022-08-07T09:46:29.070Z,68.40
2022-08-07T09:48:11.610Z,68.70
2022-08-07T09:50:39.901Z,68.90
2022-08-07T09:53:08.856Z,68.90
2022-08-07T09:56:03.379Z,69.10
2022-08-07T09:58:51.388Z,69.40
2022-08-07T10:01:51.881Z,69.40
2022-08-07T10:04:45.987Z,69.50
2022-08-07T10:07:52.241Z,69.60
2022-08-07T10:10:53.839Z,69.60
2022-08-07T10:14:00.376Z,69.50
2022-08-07T10:16:42.039Z,69.70
2022-08-07T10:19:32.036Z,69.90
2022-08-07T10:22:17.509Z,69.60
2022-08-07T10:24:51.683Z,68.90
2022-08-07T10:27:30.272Z,69.20
2022-08-07T10:30:16.439Z,68.60
2022-08-07T10:33:01.875Z,69.00
2022-08-07T10:35:53.452Z,68.80
2022-08-07T10:38:35.875Z,68.20
2022-08-07T10:41:47.370Z,67.70
2022-08-07T10:44:16.552Z,68.30
2022-08-07T10:47:11.850Z,67.80
2022-08-07T10:49:49.209Z,68.30
2022-08-07T10:52:31.769Z,67.90
2022-08-07T10:55:26.949Z,67.80
2022-08-07T10:58:00.883Z,68.10
2022-08-07T11:00:39.372Z,69.50
2022-08-07T11:03:14.600Z,67.80
2022-08-07T11:06:02.381Z,67.80
2022-08-07T11:08:46.176Z,64.10
2022-08-07T11:11:21.164Z,64.50
2022-08-07T11:14:45.969Z,63.30
2022-08-07T11:17:07.212Z,63.30
2022-08-07T11:19:54.398Z,64.00
2022-08-07T11:22:36.131Z,65.60
2022-08-07T11:25:18.049Z,64.50
2022-08-07T11:28:03.049Z,64.00
2022-08-07T11:30:53.306Z,65.70
2022-08-07T11:33:59.685Z,65.00
2022-08-07T11:36:35.705Z,65.10
2022-08-07T11:39:08.471Z,65.40
2022-08-07T11:42:01.760Z,64.20
2022-08-07T11:44:29.945Z,64.30
2022-08-07T11:47:23.609Z,65.50
2022-08-07T11:50:31.228Z,64.20
2022-08-07T11:53:15.731Z,62.00
2022-08-07T11:56:10.048Z,62.70
2022-08-07T11:58:36.310Z,63.50
2022-08-07T12:01:06.648Z,63.50
2022-08-07T12:03:52.174Z,63.10
2022-08-07T12:06:40.020Z,64.20
2022-08-07T12:09:31.653Z,65.60
2022-08-07T12:12:09.534Z,66.20
2022-08-07T12:15:01.361Z,66.60
2022-08-07T12:17:59.309Z,66.90
2022-08-07T12:20:32.734Z,66.10
2022-08-07T12:23:21.482Z,65.50
2022-08-07T12:26:29.306Z,64.40
2022-08-07T12:29:02.179Z,65.00
2022-08-07T12:31:52.745Z,64.50
2022-08-07T12:34:33.093Z,65.60
2022-08-07T12:37:00.855Z,66.10
2022-08-07T12:39:42.087Z,66.50
2022-08-07T12:42:12.178Z,66.70
2022-08-07T12:44:43.031Z,65.90
2022-08-07T12:47:30.885Z,65.30
2022-08-07T12:50:04.650Z,64.10
2022-08-07T12:52:35.061Z,64.20
2022-08-07T12:55:09.389Z,65.70
2022-08-07T12:57:39.262Z,64.90
2022-08-07T13:00:32.678Z,65.50
2022-08-07T13:03:13.044Z,65.40
2022-08-07T13:06:03.893Z,66.00
2022-08-07T13:08:48.929Z,66.40
2022-08-07T13:12:03.355Z,66.20
2022-08-07T13:14:24.154Z,65.80
2022-08-07T13:17:09.528Z,66.60
2022-08-07T13:19:50.538Z,67.50
2022-08-07T13:22:27.745Z,67.60
2022-08-07T13:25:04.390Z,67.60
2022-08-07T13:28:10.828Z,67.80
2022-08-07T13:30:43.517Z,67.50
2022-08-07T13:34:31.778Z,67.40
2022-08-07T13:36:26.630Z,67.50
2022-08-07T13:39:13.054Z,67.80
2022-08-07T13:41:56.668Z,68.10
2022-08-07T13:44:26.881Z,67.30
2022-08-07T13:47:02.806Z,66.60
2022-08-07T13:50:44.078Z,65.80
2022-08-07T13:52:35.041Z,65.70
2022-08-07T13:55:19.264Z,65.00
2022-08-07T13:58:27.614Z,65.10
2022-08-07T14:00:55.283Z,66.40
2022-08-07T14:03:30.008Z,66.60
2022-08-07T14:06:11.388Z,67.60
2022-08-07T14:08:45.148Z,68.20
2022-08-07T14:11:18.913Z,68.30
2022-08-07T14:13:55.134Z,68.10
2022-08-07T14:16:33.363Z,68.10
2022-08-07T14:19:02.953Z,68.50
2022-08-07T14:22:04.073Z,68.00
2022-08-07T14:24:28.057Z,67.40
2022-08-07T14:26:57.063Z,66.80
2022-08-07T14:30:06.700Z,63.90
2022-08-07T14:32:19.270Z,66.40
2022-08-07T14:34:47.222Z,66.10
2022-08-07T14:37:16.502Z,67.30
2022-08-07T14:40:16.565Z,67.80
2022-08-07T14:42:33.719Z,67.70
2022-08-07T14:45:21.532Z,68.20
2022-08-07T14:47:50.430Z,68.40
2022-08-07T14:50:22.611Z,68.50
2022-08-07T14:52:51.750Z,68.40
2022-08-07T14:55:19.910Z,67.50
2022-08-07T14:57:58.053Z,68.00
2022-08-07T15:00:30.361Z,68.70
2022-08-07T15:02:58.571Z,69.10
2022-08-07T15:05:26.794Z,69.20
2022-08-07T15:07:54.225Z,69.00
2022-08-07T15:10:26.556Z,68.30
2022-08-07T15:12:57.972Z,67.20
2022-08-07T15:15:52.831Z,67.80
2022-08-07T15:18:35.642Z,68.60
2022-08-07T15:21:08.177Z,69.20
2022-08-07T15:25:15.778Z,69.10
2022-08-07T15:26:32.118Z,69.10
2022-08-07T15:30:04.435Z,68.90
2022-08-07T15:31:58.115Z,68.60
2022-08-07T15:34:29.511Z,68.50
2022-08-07T15:37:03.771Z,68.30
2022-08-07T15:39:56.250Z,67.90
2022-08-07T15:45:55.731Z,67.30
2022-08-07T15:48:22.059Z,67.50
2022-08-07T15:51:08.329Z,67.00
2022-08-07T15:53:52.124Z,64.90
2022-08-07T15:56:24.149Z,66.20
2022-08-07T15:58:53.584Z,66.40
2022-08-07T16:01:38.491Z,67.10
2022-08-07T16:04:15.286Z,67.00
2022-08-07T16:07:04.541Z,65.90
2022-08-07T16:09:41.149Z,65.50
2022-08-07T16:12:29.813Z,65.50
2022-08-07T16:15:06.314Z,66.40
2022-08-07T16:18:01.740Z,65.40
2022-08-07T16:20:37.973Z,62.20
2022-08-07T16:23:53.019Z,63.80
2022-08-07T16:26:11.045Z,64.90
2022-08-07T16:30:05.551Z,65.40
2022-08-07T16:31:50.797Z,65.80
2022-08-07T16:34:36.536Z,66.20
2022-08-07T16:38:06.500Z,66.10
2022-08-07T16:40:28.809Z,66.80
2022-08-07T16:43:00.846Z,66.20
2022-08-07T16:46:11.026Z,63.60
2022-08-07T16:48:27.635Z,62.90
2022-08-07T16:51:20.424Z,63.30
2022-08-07T16:53:56.940Z,64.70
2022-08-07T16:56:30.307Z,64.50
2022-08-07T16:59:10.581Z,65.10
2022-08-07T17:01:41.623Z,65.20
2022-08-07T17:04:24.752Z,65.50
2022-08-07T17:07:02.912Z,65.90
2022-08-07T17:10:06.465Z,65.90
2022-08-07T17:12:38.695Z,66.30
2022-08-07T17:15:12.223Z,66.30
2022-08-07T17:17:48.345Z,66.50
2022-08-07T17:20:35.507Z,66.60
2022-08-07T17:23:20.025Z,66.90
2022-08-07T17:25:52.585Z,67.00
2022-08-07T17:28:31.176Z,67.10
2022-08-07T17:31:16.043Z,67.20
2022-08-07T17:34:15.515Z,68.00
2022-08-07T17:36:59.936Z,67.30
2022-08-07T17:40:03.033Z,67.40
2022-08-07T17:42:59.606Z,67.40
2022-08-07T17:45:27.470Z,67.40
2022-08-07T17:48:08.701Z,67.60
2022-08-07T17:51:01.704Z,67.50
2022-08-07T17:54:01.011Z,67.60
2022-08-07T17:56:28.528Z,67.70
2022-08-07T17:58:56.783Z,67.80
2022-08-07T18:01:36.546Z,67.90
2022-08-07T18:04:24.626Z,67.90
2022-08-07T18:07:20.262Z,67.80
2022-08-07T18:10:07.408Z,67.80
2022-08-07T18:12:55.328Z,67.80
2022-08-07T18:15:32.657Z,67.90
2022-08-07T18:18:46.259Z,67.90
2022-08-07T18:21:30.691Z,68.00
2022-08-07T18:23:57.554Z,68.10
2022-08-07T18:26:33.868Z,68.10
2022-08-07T18:30:06.641Z,68.70
2022-08-07T18:32:07.855Z,68.30
2022-08-07T18:35:00.526Z,68.30
2022-08-07T18:38:58.006Z,68.40
2022-08-07T18:40:42.733Z,68.40
2022-08-07T18:43:17.774Z,68.30
2022-08-07T18:46:25.946Z,68.40
2022-08-07T18:50:19.635Z,68.40
2022-08-07T18:52:35.500Z,68.20
2022-08-07T18:54:51.665Z,68.10
2022-08-07T18:57:30.395Z,68.10
2022-08-07T19:00:33.239Z,68.20
2022-08-07T19:03:38.143Z,68.10
2022-08-07T19:06:09.286Z,68.10
2022-08-07T19:08:46.428Z,68.10
2022-08-07T19:11:34.939Z,68.20
2022-08-07T19:14:39.139Z,68.20
2022-08-07T19:17:52.423Z,68.10
2022-08-07T19:20:06.550Z,68.20
2022-08-07T19:23:18.878Z,68.30
2022-08-07T19:26:23.164Z,68.40
2022-08-07T19:30:55.584Z,68.50
2022-08-07T19:32:07.816Z,68.80
2022-08-07T19:34:36.195Z,68.80
2022-08-07T19:37:10.360Z,69.00
2022-08-07T19:39:57.644Z,68.90
2022-08-07T19:42:30.315Z,69.20
2022-08-07T19:45:08.029Z,69.30
2022-08-07T19:47:37.973Z,69.40
2022-08-07T19:50:41.427Z,69.40
2022-08-07T19:52:58.369Z,69.50
2022-08-07T19:55:56.463Z,69.60
2022-08-07T19:58:15.790Z,69.60
2022-08-07T20:00:54.032Z,69.80
2022-08-07T20:03:34.485Z,69.90
2022-08-07T20:06:04.437Z,70.00
2022-08-07T20:08:37.973Z,70.20
2022-08-07T20:11:09.644Z,70.10
2022-08-07T20:13:53.857Z,70.30
2022-08-07T20:16:35.825Z,70.30
2022-08-07T20:19:10.161Z,70.10
2022-08-07T20:21:42.273Z,70.30
2022-08-07T20:24:16.574Z,70.20
2022-08-07T20:26:49.945Z,70.20
2022-08-07T20:29:49.209Z,70.30
2022-08-07T20:32:11.639Z,70.30
2022-08-07T20:34:53.899Z,70.20
2022-08-07T20:37:23.396Z,70.30
2022-08-07T20:40:04.236Z,70.20
2022-08-07T20:42:32.203Z,70.20
2022-08-07T20:45:01.106Z,70.30
2022-08-07T20:47:55.332Z,70.10
2022-08-07T20:50:18.255Z,70.30
2022-08-07T20:52:51.266Z,70.30
2022-08-07T20:55:20.561Z,70.20
2022-08-07T20:58:02.303Z,70.10
2022-08-07T21:00:42.730Z,70.10
2022-08-07T21:03:11.881Z,70.10
2022-08-07T21:05:54.426Z,70.10
2022-08-07T21:08:36.769Z,70.00
2022-08-07T21:11:10.495Z,70.00
2022-08-07T21:13:57.595Z,69.80
2022-08-07T21:16:27.331Z,69.90
2022-08-07T21:18:56.599Z,69.80
2022-08-07T21:21:27.244Z,69.90
2022-08-07T21:24:03.913Z,69.90
2022-08-07T21:26:55.097Z,69.90
2022-08-07T21:29:23.606Z,69.80
2022-08-07T21:32:47.993Z,69.90
2022-08-07T21:35:11.318Z,69.90
2022-08-07T21:37:59.626Z,70.10
2022-08-07T21:40:27.021Z,70.10
2022-08-07T21:42:56.737Z,69.80
2022-08-07T21:46:08.214Z,69.80
2022-08-07T21:48:28.492Z,69.80
2022-08-07T21:51:20.049Z,69.70
2022-08-07T21:53:53.679Z,69.70
2022-08-07T21:56:36.342Z,69.60
2022-08-07T21:59:09.558Z,69.60
2022-08-07T22:02:07.390Z,69.50
2022-08-07T22:04:27.446Z,69.40
2022-08-07T22:07:00.568Z,69.40
2022-08-07T22:09:31.514Z,69.50
2022-08-07T22:12:25.105Z,69.40
2022-08-07T22:15:00.048Z,69.40
2022-08-07T22:17:35.983Z,69.40
2022-08-07T22:20:04.331Z,69.40
2022-08-07T22:22:39.914Z,69.40
2022-08-07T22:25:11.231Z,69.60
2022-08-07T22:28:06.390Z,69.40
2022-08-07T22:30:37.830Z,69.40
2022-08-07T22:33:09.446Z,69.50
2022-08-07T22:35:42.370Z,69.50
2022-08-07T22:38:09.028Z,69.50
2022-08-07T22:40:42.316Z,69.50
2022-08-07T22:43:10.882Z,69.60
2022-08-07T22:46:04.881Z,69.50
2022-08-07T22:48:55.235Z,69.40
2022-08-07T22:51:40.055Z,69.40
2022-08-07T22:54:30.320Z,69.40
2022-08-07T22:57:02.407Z,69.40
2022-08-07T23:00:01.432Z,69.50
2022-08-07T23:02:41.354Z,69.40
2022-08-07T23:06:10.294Z,69.40
2022-08-07T23:08:24.317Z,69.50
2022-08-07T23:11:10.307Z,69.40
2022-08-07T23:14:15.358Z,69.40
2022-08-07T23:16:54.369Z,69.40
2022-08-07T23:20:03.935Z,69.40
2022-08-07T23:22:31.129Z,69.40
2022-08-07T23:25:21.558Z,69.40
2022-08-07T23:28:22.618Z,69.40
2022-08-07T23:31:42.899Z,69.30
2022-08-07T23:34:37.997Z,69.30
2022-08-07T23:37:19.549Z,69.30
2022-08-07T23:40:05.740Z,69.30
2022-08-07T23:42:37.114Z,69.10
2022-08-07T23:45:05.003Z,69.10
2022-08-07T23:47:42.172Z,69.00
2022-08-07T23:50:19.484Z,69.10
2022-08-07T23:53:06.142Z,69.00
2022-08-07T23:55:51.809Z,68.90
2022-08-07T23:58:34.837Z,68.90
